sensor_id;sensor_type;location;lat;lon;timestamp;P1;durP1;ratioP1;P2;durP2;ratioP2
15490;SDS011;7847;50.930;4.336;2023-06-05T00:01:05;0.20;;;0.20;;
15490;SDS011;7847;50.930;4.336;2023-06-05T00:03:31;0.20;;;0.20;;
15490;SDS011;7847;50.930;4.336;2023-06-05T00:05:58;0.20;;;0.20;;
15490;SDS011;7847;50.930;4.336;2023-06-05T00:08:24;0.20;;;0.20;;
15490;SDS011;7847;50.930;4.336;2023-06-05T00:10:50;0.20;;;0.20;;
15490;SDS011;7847;50.930;4.336;2023-06-05T00:13:16;0.20;;;0.20;;
15490;SDS011;7847;50.930;4.336;2023-06-05T00:15:42;0.20;;;0.20;;
15490;SDS011;7847;50.930;4.336;2023-06-05T00:18:08;0.20;;;0.20;;
15490;SDS011;7847;50.930;4.336;2023-06-05T00:20:34;0.20;;;0.20;;
15490;SDS011;7847;50.930;4.336;2023-06-05T00:23:00;0.20;;;0.20;;
15490;SDS011;7847;50.930;4.336;2023-06-05T00:25:26;0.20;;;0.20;;
15490;SDS011;7847;50.930;4.336;2023-06-05T00:27:52;0.20;;;0.20;;
15490;SDS011;7847;50.930;4.336;2023-06-05T00:30:18;0.20;;;0.20;;
15490;SDS011;7847;50.930;4.336;2023-06-05T00:32:44;0.20;;;0.20;;
15490;SDS011;7847;50.930;4.336;2023-06-05T00:35:10;0.20;;;0.20;;
15490;SDS011;7847;50.930;4.336;2023-06-05T00:37:37;0.20;;;0.20;;
15490;SDS011;7847;50.930;4.336;2023-06-05T00:40:04;0.20;;;0.20;;
15490;SDS011;7847;50.930;4.336;2023-06-05T00:42:30;0.20;;;0.20;;
15490;SDS011;7847;50.930;4.336;2023-06-05T00:44:56;0.20;;;0.20;;
15490;SDS011;7847;50.930;4.336;2023-06-05T00:47:22;0.20;;;0.20;;
15490;SDS011;7847;50.930;4.336;2023-06-05T00:49:48;0.20;;;0.20;;
15490;SDS011;7847;50.930;4.336;2023-06-05T00:52:14;0.20;;;0.20;;
15490;SDS011;7847;50.930;4.336;2023-06-05T00:54:40;0.20;;;0.20;;
15490;SDS011;7847;50.930;4.336;2023-06-05T00:57:07;0.20;;;0.20;;
15490;SDS011;7847;50.930;4.336;2023-06-05T00:59:34;0.20;;;0.20;;
15490;SDS011;7847;50.930;4.336;2023-06-05T01:02:00;0.20;;;0.20;;
15490;SDS011;7847;50.930;4.336;2023-06-05T01:04:27;0.22;;;0.22;;
15490;SDS011;7847;50.930;4.336;2023-06-05T01:06:54;0.20;;;0.20;;
15490;SDS011;7847;50.930;4.336;2023-06-05T01:09:22;0.20;;;0.20;;
15490;SDS011;7847;50.930;4.336;2023-06-05T01:14:24;0.30;;;0.30;;
15490;SDS011;7847;50.930;4.336;2023-06-05T01:16:53;0.28;;;0.28;;
15490;SDS011;7847;50.930;4.336;2023-06-05T01:19:22;0.30;;;0.30;;
15490;SDS011;7847;50.930;4.336;2023-06-05T01:21:54;0.20;;;0.20;;
15490;SDS011;7847;50.930;4.336;2023-06-05T01:24:23;0.20;;;0.20;;
15490;SDS011;7847;50.930;4.336;2023-06-05T01:32:02;0.20;;;0.20;;
15490;SDS011;7847;50.930;4.336;2023-06-05T01:34:31;0.23;;;0.23;;
15490;SDS011;7847;50.930;4.336;2023-06-05T01:36:57;0.20;;;0.20;;
15490;SDS011;7847;50.930;4.336;2023-06-05T01:39:24;0.30;;;0.30;;
15490;SDS011;7847;50.930;4.336;2023-06-05T01:41:51;0.20;;;0.20;;
15490;SDS011;7847;50.930;4.336;2023-06-05T01:44:17;0.30;;;0.30;;
15490;SDS011;7847;50.930;4.336;2023-06-05T01:46:43;0.30;;;0.30;;
15490;SDS011;7847;50.930;4.336;2023-06-05T01:49:10;0.30;;;0.30;;
15490;SDS011;7847;50.930;4.336;2023-06-05T01:51:36;0.20;;;0.20;;
15490;SDS011;7847;50.930;4.336;2023-06-05T01:54:02;0.20;;;0.20;;
15490;SDS011;7847;50.930;4.336;2023-06-05T01:56:30;0.20;;;0.20;;
15490;SDS011;7847;50.930;4.336;2023-06-05T01:58:57;0.20;;;0.20;;
15490;SDS011;7847;50.930;4.336;2023-06-05T02:01:23;0.30;;;0.30;;
15490;SDS011;7847;50.930;4.336;2023-06-05T02:03:50;0.20;;;0.20;;
15490;SDS011;7847;50.930;4.336;2023-06-05T02:06:18;0.20;;;0.20;;
15490;SDS011;7847;50.930;4.336;2023-06-05T02:08:44;0.20;;;0.20;;
15490;SDS011;7847;50.930;4.336;2023-06-05T02:11:10;0.30;;;0.30;;
15490;SDS011;7847;50.930;4.336;2023-06-05T02:13:40;0.20;;;0.20;;
15490;SDS011;7847;50.930;4.336;2023-06-05T02:16:09;0.20;;;0.20;;
15490;SDS011;7847;50.930;4.336;2023-06-05T02:18:36;0.23;;;0.23;;
15490;SDS011;7847;50.930;4.336;2023-06-05T02:21:03;0.30;;;0.30;;
15490;SDS011;7847;50.930;4.336;2023-06-05T02:23:29;0.20;;;0.20;;
15490;SDS011;7847;50.930;4.336;2023-06-05T02:25:55;0.30;;;0.30;;
15490;SDS011;7847;50.930;4.336;2023-06-05T02:28:21;0.20;;;0.20;;
15490;SDS011;7847;50.930;4.336;2023-06-05T02:30:48;0.30;;;0.30;;
15490;SDS011;7847;50.930;4.336;2023-06-05T02:33:18;0.20;;;0.20;;
15490;SDS011;7847;50.930;4.336;2023-06-05T02:35:44;0.20;;;0.20;;
15490;SDS011;7847;50.930;4.336;2023-06-05T02:38:11;0.30;;;0.30;;
15490;SDS011;7847;50.930;4.336;2023-06-05T02:40:37;0.30;;;0.30;;
15490;SDS011;7847;50.930;4.336;2023-06-05T02:43:04;0.30;;;0.30;;
15490;SDS011;7847;50.930;4.336;2023-06-05T02:45:31;0.20;;;0.20;;
15490;SDS011;7847;50.930;4.336;2023-06-05T02:47:57;0.20;;;0.20;;
15490;SDS011;7847;50.930;4.336;2023-06-05T02:50:23;0.30;;;0.30;;
15490;SDS011;7847;50.930;4.336;2023-06-05T02:52:49;0.20;;;0.20;;
15490;SDS011;7847;50.930;4.336;2023-06-05T02:55:15;0.30;;;0.30;;
15490;SDS011;7847;50.930;4.336;2023-06-05T02:57:42;0.30;;;0.30;;
15490;SDS011;7847;50.930;4.336;2023-06-05T03:00:10;0.30;;;0.30;;
15490;SDS011;7847;50.930;4.336;2023-06-05T03:02:43;0.30;;;0.30;;
15490;SDS011;7847;50.930;4.336;2023-06-05T03:05:13;0.30;;;0.30;;
15490;SDS011;7847;50.930;4.336;2023-06-05T03:07:39;0.30;;;0.30;;
15490;SDS011;7847;50.930;4.336;2023-06-05T03:10:07;0.30;;;0.30;;
15490;SDS011;7847;50.930;4.336;2023-06-05T03:12:33;0.30;;;0.30;;
15490;SDS011;7847;50.930;4.336;2023-06-05T03:14:59;0.30;;;0.30;;
15490;SDS011;7847;50.930;4.336;2023-06-05T03:17:25;0.30;;;0.30;;
15490;SDS011;7847;50.930;4.336;2023-06-05T03:19:53;0.30;;;0.30;;
15490;SDS011;7847;50.930;4.336;2023-06-05T03:22:19;0.30;;;0.30;;
15490;SDS011;7847;50.930;4.336;2023-06-05T03:24:45;0.30;;;0.30;;
15490;SDS011;7847;50.930;4.336;2023-06-05T03:27:11;0.30;;;0.30;;
15490;SDS011;7847;50.930;4.336;2023-06-05T03:29:37;0.30;;;0.30;;
15490;SDS011;7847;50.930;4.336;2023-06-05T03:32:03;0.23;;;0.23;;
15490;SDS011;7847;50.930;4.336;2023-06-05T03:34:29;0.30;;;0.30;;
15490;SDS011;7847;50.930;4.336;2023-06-05T03:36:57;0.30;;;0.30;;
15490;SDS011;7847;50.930;4.336;2023-06-05T03:39:23;0.30;;;0.30;;
15490;SDS011;7847;50.930;4.336;2023-06-05T03:41:50;0.30;;;0.30;;
15490;SDS011;7847;50.930;4.336;2023-06-05T03:44:16;0.30;;;0.30;;
15490;SDS011;7847;50.930;4.336;2023-06-05T03:46:42;0.30;;;0.30;;
15490;SDS011;7847;50.930;4.336;2023-06-05T03:49:09;0.30;;;0.30;;
15490;SDS011;7847;50.930;4.336;2023-06-05T03:51:35;0.30;;;0.30;;
15490;SDS011;7847;50.930;4.336;2023-06-05T03:54:01;0.33;;;0.33;;
15490;SDS011;7847;50.930;4.336;2023-06-05T03:56:28;0.30;;;0.30;;
15490;SDS011;7847;50.930;4.336;2023-06-05T03:59:02;0.30;;;0.30;;
15490;SDS011;7847;50.930;4.336;2023-06-05T04:01:43;0.30;;;0.30;;
15490;SDS011;7847;50.930;4.336;2023-06-05T04:04:09;0.30;;;0.30;;
15490;SDS011;7847;50.930;4.336;2023-06-05T04:06:35;0.30;;;0.30;;
15490;SDS011;7847;50.930;4.336;2023-06-05T04:09:02;0.30;;;0.30;;
15490;SDS011;7847;50.930;4.336;2023-06-05T04:11:35;0.30;;;0.30;;
15490;SDS011;7847;50.930;4.336;2023-06-05T04:14:01;0.30;;;0.30;;
15490;SDS011;7847;50.930;4.336;2023-06-05T04:16:27;0.30;;;0.30;;
15490;SDS011;7847;50.930;4.336;2023-06-05T04:18:54;0.30;;;0.30;;
15490;SDS011;7847;50.930;4.336;2023-06-05T04:21:20;0.30;;;0.30;;
15490;SDS011;7847;50.930;4.336;2023-06-05T04:23:46;0.30;;;0.30;;
15490;SDS011;7847;50.930;4.336;2023-06-05T04:26:12;0.30;;;0.30;;
15490;SDS011;7847;50.930;4.336;2023-06-05T04:28:40;0.30;;;0.30;;
15490;SDS011;7847;50.930;4.336;2023-06-05T04:31:07;0.30;;;0.30;;
15490;SDS011;7847;50.930;4.336;2023-06-05T04:33:33;0.30;;;0.30;;
15490;SDS011;7847;50.930;4.336;2023-06-05T04:35:59;0.20;;;0.20;;
15490;SDS011;7847;50.930;4.336;2023-06-05T04:38:26;0.30;;;0.30;;
15490;SDS011;7847;50.930;4.336;2023-06-05T04:40:53;0.30;;;0.30;;
15490;SDS011;7847;50.930;4.336;2023-06-05T04:43:19;0.20;;;0.20;;
15490;SDS011;7847;50.930;4.336;2023-06-05T04:45:45;0.20;;;0.20;;
15490;SDS011;7847;50.930;4.336;2023-06-05T04:48:12;0.20;;;0.20;;
15490;SDS011;7847;50.930;4.336;2023-06-05T04:50:38;0.20;;;0.20;;
15490;SDS011;7847;50.930;4.336;2023-06-05T04:53:05;0.20;;;0.20;;
15490;SDS011;7847;50.930;4.336;2023-06-05T04:55:31;0.20;;;0.20;;
15490;SDS011;7847;50.930;4.336;2023-06-05T04:57:57;0.30;;;0.30;;
15490;SDS011;7847;50.930;4.336;2023-06-05T05:00:26;0.30;;;0.30;;
15490;SDS011;7847;50.930;4.336;2023-06-05T05:02:52;0.30;;;0.30;;
15490;SDS011;7847;50.930;4.336;2023-06-05T05:05:19;0.30;;;0.30;;
15490;SDS011;7847;50.930;4.336;2023-06-05T05:07:45;0.30;;;0.30;;
15490;SDS011;7847;50.930;4.336;2023-06-05T05:10:11;0.30;;;0.30;;
15490;SDS011;7847;50.930;4.336;2023-06-05T05:12:37;0.30;;;0.30;;
15490;SDS011;7847;50.930;4.336;2023-06-05T05:15:04;0.20;;;0.20;;
15490;SDS011;7847;50.930;4.336;2023-06-05T05:17:30;0.30;;;0.30;;
15490;SDS011;7847;50.930;4.336;2023-06-05T05:19:56;0.23;;;0.23;;
15490;SDS011;7847;50.930;4.336;2023-06-05T05:22:23;0.30;;;0.30;;
15490;SDS011;7847;50.930;4.336;2023-06-05T05:24:49;0.20;;;0.20;;
15490;SDS011;7847;50.930;4.336;2023-06-05T05:27:15;0.20;;;0.20;;
15490;SDS011;7847;50.930;4.336;2023-06-05T05:29:41;0.20;;;0.20;;
15490;SDS011;7847;50.930;4.336;2023-06-05T05:32:14;0.20;;;0.20;;
15490;SDS011;7847;50.930;4.336;2023-06-05T05:34:40;0.20;;;0.20;;
15490;SDS011;7847;50.930;4.336;2023-06-05T05:37:06;0.30;;;0.30;;
15490;SDS011;7847;50.930;4.336;2023-06-05T05:39:32;0.25;;;0.25;;
15490;SDS011;7847;50.930;4.336;2023-06-05T05:41:58;0.20;;;0.20;;
15490;SDS011;7847;50.930;4.336;2023-06-05T05:44:26;0.20;;;0.20;;
15490;SDS011;7847;50.930;4.336;2023-06-05T05:46:52;0.30;;;0.30;;
15490;SDS011;7847;50.930;4.336;2023-06-05T05:49:22;0.30;;;0.30;;
15490;SDS011;7847;50.930;4.336;2023-06-05T05:51:48;0.30;;;0.30;;
15490;SDS011;7847;50.930;4.336;2023-06-05T05:54:14;0.20;;;0.20;;
15490;SDS011;7847;50.930;4.336;2023-06-05T05:56:41;0.20;;;0.20;;
15490;SDS011;7847;50.930;4.336;2023-06-05T05:59:07;0.20;;;0.20;;
15490;SDS011;7847;50.930;4.336;2023-06-05T06:01:33;0.20;;;0.20;;
15490;SDS011;7847;50.930;4.336;2023-06-05T06:03:59;0.20;;;0.20;;
15490;SDS011;7847;50.930;4.336;2023-06-05T06:06:25;0.30;;;0.30;;
15490;SDS011;7847;50.930;4.336;2023-06-05T06:08:51;0.30;;;0.30;;
15490;SDS011;7847;50.930;4.336;2023-06-05T06:11:17;0.20;;;0.20;;
15490;SDS011;7847;50.930;4.336;2023-06-05T06:13:43;0.20;;;0.20;;
15490;SDS011;7847;50.930;4.336;2023-06-05T06:16:09;0.30;;;0.30;;
15490;SDS011;7847;50.930;4.336;2023-06-05T06:18:35;0.30;;;0.30;;
15490;SDS011;7847;50.930;4.336;2023-06-05T06:21:02;0.25;;;0.25;;
15490;SDS011;7847;50.930;4.336;2023-06-05T06:23:29;0.20;;;0.20;;
15490;SDS011;7847;50.930;4.336;2023-06-05T06:25:55;0.20;;;0.20;;
15490;SDS011;7847;50.930;4.336;2023-06-05T06:28:21;0.20;;;0.20;;
15490;SDS011;7847;50.930;4.336;2023-06-05T06:30:47;0.20;;;0.20;;
15490;SDS011;7847;50.930;4.336;2023-06-05T06:33:13;0.30;;;0.30;;
15490;SDS011;7847;50.930;4.336;2023-06-05T06:35:39;0.20;;;0.20;;
15490;SDS011;7847;50.930;4.336;2023-06-05T06:38:06;0.20;;;0.20;;
15490;SDS011;7847;50.930;4.336;2023-06-05T06:40:35;0.20;;;0.20;;
15490;SDS011;7847;50.930;4.336;2023-06-05T06:43:04;0.20;;;0.20;;
15490;SDS011;7847;50.930;4.336;2023-06-05T06:45:30;0.25;;;0.25;;
15490;SDS011;7847;50.930;4.336;2023-06-05T06:47:57;0.20;;;0.20;;
15490;SDS011;7847;50.930;4.336;2023-06-05T06:50:23;0.20;;;0.20;;
15490;SDS011;7847;50.930;4.336;2023-06-05T06:52:49;0.30;;;0.30;;
15490;SDS011;7847;50.930;4.336;2023-06-05T06:55:15;0.20;;;0.20;;
15490;SDS011;7847;50.930;4.336;2023-06-05T06:57:41;0.20;;;0.20;;
15490;SDS011;7847;50.930;4.336;2023-06-05T07:00:07;0.20;;;0.20;;
15490;SDS011;7847;50.930;4.336;2023-06-05T07:02:35;0.20;;;0.20;;
15490;SDS011;7847;50.930;4.336;2023-06-05T07:05:02;0.30;;;0.30;;
15490;SDS011;7847;50.930;4.336;2023-06-05T07:07:28;0.30;;;0.30;;
15490;SDS011;7847;50.930;4.336;2023-06-05T07:09:54;0.30;;;0.30;;
15490;SDS011;7847;50.930;4.336;2023-06-05T07:12:22;0.20;;;0.20;;
15490;SDS011;7847;50.930;4.336;2023-06-05T07:14:48;0.20;;;0.20;;
15490;SDS011;7847;50.930;4.336;2023-06-05T07:17:15;0.30;;;0.30;;
15490;SDS011;7847;50.930;4.336;2023-06-05T07:19:41;0.20;;;0.20;;
15490;SDS011;7847;50.930;4.336;2023-06-05T07:22:07;0.20;;;0.20;;
15490;SDS011;7847;50.930;4.336;2023-06-05T07:24:33;0.10;;;0.10;;
15490;SDS011;7847;50.930;4.336;2023-06-05T07:27:04;0.20;;;0.20;;
15490;SDS011;7847;50.930;4.336;2023-06-05T07:29:30;0.20;;;0.20;;
15490;SDS011;7847;50.930;4.336;2023-06-05T07:31:57;0.20;;;0.20;;
15490;SDS011;7847;50.930;4.336;2023-06-05T07:34:24;0.20;;;0.20;;
15490;SDS011;7847;50.930;4.336;2023-06-05T07:36:51;0.20;;;0.20;;
15490;SDS011;7847;50.930;4.336;2023-06-05T07:39:17;0.20;;;0.20;;
15490;SDS011;7847;50.930;4.336;2023-06-05T07:41:43;0.20;;;0.20;;
15490;SDS011;7847;50.930;4.336;2023-06-05T07:44:10;0.25;;;0.25;;
15490;SDS011;7847;50.930;4.336;2023-06-05T07:46:36;0.30;;;0.30;;
15490;SDS011;7847;50.930;4.336;2023-06-05T07:49:03;0.20;;;0.20;;
15490;SDS011;7847;50.930;4.336;2023-06-05T07:51:29;0.20;;;0.20;;
15490;SDS011;7847;50.930;4.336;2023-06-05T07:53:58;0.20;;;0.20;;
15490;SDS011;7847;50.930;4.336;2023-06-05T07:56:25;0.30;;;0.30;;
15490;SDS011;7847;50.930;4.336;2023-06-05T07:58:51;0.20;;;0.20;;
15490;SDS011;7847;50.930;4.336;2023-06-05T08:01:17;0.20;;;0.20;;
15490;SDS011;7847;50.930;4.336;2023-06-05T08:03:45;0.20;;;0.20;;
15490;SDS011;7847;50.930;4.336;2023-06-05T08:06:11;0.20;;;0.20;;
15490;SDS011;7847;50.930;4.336;2023-06-05T08:08:37;0.20;;;0.20;;
15490;SDS011;7847;50.930;4.336;2023-06-05T08:11:03;0.20;;;0.20;;
15490;SDS011;7847;50.930;4.336;2023-06-05T08:13:29;0.20;;;0.20;;
15490;SDS011;7847;50.930;4.336;2023-06-05T08:15:55;0.20;;;0.20;;
15490;SDS011;7847;50.930;4.336;2023-06-05T08:18:21;0.20;;;0.20;;
15490;SDS011;7847;50.930;4.336;2023-06-05T08:20:47;0.20;;;0.20;;
15490;SDS011;7847;50.930;4.336;2023-06-05T08:23:13;0.20;;;0.20;;
15490;SDS011;7847;50.930;4.336;2023-06-05T08:25:41;0.20;;;0.20;;
15490;SDS011;7847;50.930;4.336;2023-06-05T08:28:07;0.20;;;0.20;;
15490;SDS011;7847;50.930;4.336;2023-06-05T08:30:33;0.20;;;0.20;;
15490;SDS011;7847;50.930;4.336;2023-06-05T08:32:59;0.20;;;0.20;;
15490;SDS011;7847;50.930;4.336;2023-06-05T08:35:26;0.20;;;0.20;;
15490;SDS011;7847;50.930;4.336;2023-06-05T08:37:52;0.20;;;0.20;;
15490;SDS011;7847;50.930;4.336;2023-06-05T08:40:18;0.20;;;0.20;;
15490;SDS011;7847;50.930;4.336;2023-06-05T08:42:44;0.10;;;0.10;;
15490;SDS011;7847;50.930;4.336;2023-06-05T08:45:10;0.20;;;0.20;;
15490;SDS011;7847;50.930;4.336;2023-06-05T08:47:37;0.15;;;0.15;;
15490;SDS011;7847;50.930;4.336;2023-06-05T08:50:04;0.20;;;0.20;;
15490;SDS011;7847;50.930;4.336;2023-06-05T08:52:32;0.20;;;0.20;;
15490;SDS011;7847;50.930;4.336;2023-06-05T08:55:00;0.20;;;0.20;;
15490;SDS011;7847;50.930;4.336;2023-06-05T08:57:26;0.10;;;0.10;;
15490;SDS011;7847;50.930;4.336;2023-06-05T08:59:53;0.20;;;0.20;;
15490;SDS011;7847;50.930;4.336;2023-06-05T09:02:20;0.20;;;0.20;;
15490;SDS011;7847;50.930;4.336;2023-06-05T09:04:46;0.20;;;0.20;;
15490;SDS011;7847;50.930;4.336;2023-06-05T09:07:14;0.20;;;0.20;;
15490;SDS011;7847;50.930;4.336;2023-06-05T09:09:42;0.20;;;0.20;;
15490;SDS011;7847;50.930;4.336;2023-06-05T09:12:08;0.20;;;0.20;;
15490;SDS011;7847;50.930;4.336;2023-06-05T09:14:34;0.20;;;0.20;;
15490;SDS011;7847;50.930;4.336;2023-06-05T09:17:01;0.10;;;0.10;;
15490;SDS011;7847;50.930;4.336;2023-06-05T09:19:37;0.20;;;0.20;;
15490;SDS011;7847;50.930;4.336;2023-06-05T09:22:05;0.20;;;0.20;;
15490;SDS011;7847;50.930;4.336;2023-06-05T09:24:31;0.10;;;0.10;;
15490;SDS011;7847;50.930;4.336;2023-06-05T09:27:04;0.20;;;0.20;;
15490;SDS011;7847;50.930;4.336;2023-06-05T09:29:37;0.20;;;0.20;;
15490;SDS011;7847;50.930;4.336;2023-06-05T09:32:16;0.10;;;0.10;;
15490;SDS011;7847;50.930;4.336;2023-06-05T09:34:47;0.10;;;0.10;;
15490;SDS011;7847;50.930;4.336;2023-06-05T09:37:32;0.10;;;0.10;;
15490;SDS011;7847;50.930;4.336;2023-06-05T09:39:59;0.10;;;0.10;;
15490;SDS011;7847;50.930;4.336;2023-06-05T09:42:31;0.10;;;0.10;;
15490;SDS011;7847;50.930;4.336;2023-06-05T09:44:58;0.10;;;0.10;;
15490;SDS011;7847;50.930;4.336;2023-06-05T09:47:25;0.20;;;0.20;;
15490;SDS011;7847;50.930;4.336;2023-06-05T09:49:51;0.20;;;0.20;;
15490;SDS011;7847;50.930;4.336;2023-06-05T09:52:17;0.20;;;0.20;;
15490;SDS011;7847;50.930;4.336;2023-06-05T09:54:44;0.20;;;0.20;;
15490;SDS011;7847;50.930;4.336;2023-06-05T09:57:10;0.10;;;0.10;;
15490;SDS011;7847;50.930;4.336;2023-06-05T10:02:10;0.10;;;0.10;;
15490;SDS011;7847;50.930;4.336;2023-06-05T10:07:36;0.10;;;0.10;;
15490;SDS011;7847;50.930;4.336;2023-06-05T10:10:04;0.10;;;0.10;;
15490;SDS011;7847;50.930;4.336;2023-06-05T10:12:31;0.10;;;0.10;;
15490;SDS011;7847;50.930;4.336;2023-06-05T10:14:57;0.10;;;0.10;;
15490;SDS011;7847;50.930;4.336;2023-06-05T10:17:24;0.15;;;0.15;;
15490;SDS011;7847;50.930;4.336;2023-06-05T10:19:50;0.10;;;0.10;;
15490;SDS011;7847;50.930;4.336;2023-06-05T10:22:17;0.10;;;0.10;;
15490;SDS011;7847;50.930;4.336;2023-06-05T10:24:44;0.10;;;0.10;;
15490;SDS011;7847;50.930;4.336;2023-06-05T10:35:39;0.10;;;0.10;;
15490;SDS011;7847;50.930;4.336;2023-06-05T10:40:34;0.10;;;0.10;;
15490;SDS011;7847;50.930;4.336;2023-06-05T10:45:45;0.10;;;0.10;;
15490;SDS011;7847;50.930;4.336;2023-06-05T10:48:12;0.10;;;0.10;;
15490;SDS011;7847;50.930;4.336;2023-06-05T10:50:38;0.10;;;0.10;;
15490;SDS011;7847;50.930;4.336;2023-06-05T10:53:04;0.10;;;0.10;;
15490;SDS011;7847;50.930;4.336;2023-06-05T10:55:40;0.00;;;0.00;;
15490;SDS011;7847;50.930;4.336;2023-06-05T10:58:08;0.10;;;0.10;;
15490;SDS011;7847;50.930;4.336;2023-06-05T11:00:35;0.10;;;0.10;;
15490;SDS011;7847;50.930;4.336;2023-06-05T11:03:02;0.10;;;0.10;;
15490;SDS011;7847;50.930;4.336;2023-06-05T11:05:29;0.10;;;0.10;;
15490;SDS011;7847;50.930;4.336;2023-06-05T11:08:11;0.10;;;0.10;;
15490;SDS011;7847;50.930;4.336;2023-06-05T11:13:25;0.00;;;0.00;;
15490;SDS011;7847;50.930;4.336;2023-06-05T11:15:51;0.10;;;0.10;;
15490;SDS011;7847;50.930;4.336;2023-06-05T11:18:28;0.05;;;0.05;;
15490;SDS011;7847;50.930;4.336;2023-06-05T11:20:54;0.10;;;0.10;;
15490;SDS011;7847;50.930;4.336;2023-06-05T11:23:20;0.10;;;0.10;;
15490;SDS011;7847;50.930;4.336;2023-06-05T11:25:47;0.00;;;0.00;;
15490;SDS011;7847;50.930;4.336;2023-06-05T11:28:16;0.05;;;0.05;;
15490;SDS011;7847;50.930;4.336;2023-06-05T11:31:01;0.10;;;0.10;;
15490;SDS011;7847;50.930;4.336;2023-06-05T11:33:28;0.10;;;0.10;;
15490;SDS011;7847;50.930;4.336;2023-06-05T11:35:59;0.10;;;0.10;;
15490;SDS011;7847;50.930;4.336;2023-06-05T11:38:25;0.00;;;0.00;;
15490;SDS011;7847;50.930;4.336;2023-06-05T11:40:51;0.00;;;0.00;;
15490;SDS011;7847;50.930;4.336;2023-06-05T11:43:17;0.10;;;0.10;;
15490;SDS011;7847;50.930;4.336;2023-06-05T11:45:50;0.10;;;0.10;;
15490;SDS011;7847;50.930;4.336;2023-06-05T11:48:17;0.10;;;0.10;;
15490;SDS011;7847;50.930;4.336;2023-06-05T11:50:57;0.00;;;0.00;;
15490;SDS011;7847;50.930;4.336;2023-06-05T11:53:24;0.00;;;0.00;;
15490;SDS011;7847;50.930;4.336;2023-06-05T11:55:50;0.10;;;0.10;;
15490;SDS011;7847;50.930;4.336;2023-06-05T11:58:23;0.00;;;0.00;;
15490;SDS011;7847;50.930;4.336;2023-06-05T12:00:50;0.00;;;0.00;;
15490;SDS011;7847;50.930;4.336;2023-06-05T12:03:16;0.00;;;0.00;;
15490;SDS011;7847;50.930;4.336;2023-06-05T12:05:43;0.10;;;0.10;;
15490;SDS011;7847;50.930;4.336;2023-06-05T12:08:25;0.00;;;0.00;;
15490;SDS011;7847;50.930;4.336;2023-06-05T12:10:52;0.05;;;0.05;;
15490;SDS011;7847;50.930;4.336;2023-06-05T12:13:18;0.10;;;0.10;;
15490;SDS011;7847;50.930;4.336;2023-06-05T12:15:58;0.00;;;0.00;;
15490;SDS011;7847;50.930;4.336;2023-06-05T12:18:33;0.00;;;0.00;;
15490;SDS011;7847;50.930;4.336;2023-06-05T12:21:00;0.00;;;0.00;;
15490;SDS011;7847;50.930;4.336;2023-06-05T12:23:29;0.10;;;0.10;;
15490;SDS011;7847;50.930;4.336;2023-06-05T12:25:59;0.10;;;0.10;;
15490;SDS011;7847;50.930;4.336;2023-06-05T12:28:26;0.10;;;0.10;;
15490;SDS011;7847;50.930;4.336;2023-06-05T12:30:52;0.00;;;0.00;;
15490;SDS011;7847;50.930;4.336;2023-06-05T12:33:18;0.00;;;0.00;;
15490;SDS011;7847;50.930;4.336;2023-06-05T12:35:45;0.00;;;0.00;;
15490;SDS011;7847;50.930;4.336;2023-06-05T12:38:11;0.10;;;0.10;;
15490;SDS011;7847;50.930;4.336;2023-06-05T12:40:37;0.10;;;0.10;;
15490;SDS011;7847;50.930;4.336;2023-06-05T12:43:05;0.08;;;0.08;;
15490;SDS011;7847;50.930;4.336;2023-06-05T12:45:42;0.10;;;0.10;;
15490;SDS011;7847;50.930;4.336;2023-06-05T12:48:08;0.00;;;0.00;;
15490;SDS011;7847;50.930;4.336;2023-06-05T12:50:35;0.00;;;0.00;;
15490;SDS011;7847;50.930;4.336;2023-06-05T12:53:01;0.00;;;0.00;;
15490;SDS011;7847;50.930;4.336;2023-06-05T12:55:27;0.00;;;0.00;;
15490;SDS011;7847;50.930;4.336;2023-06-05T12:57:53;0.00;;;0.00;;
15490;SDS011;7847;50.930;4.336;2023-06-05T13:00:19;0.10;;;0.10;;
15490;SDS011;7847;50.930;4.336;2023-06-05T13:02:46;0.10;;;0.10;;
15490;SDS011;7847;50.930;4.336;2023-06-05T13:05:15;0.10;;;0.10;;
15490;SDS011;7847;50.930;4.336;2023-06-05T13:07:42;0.00;;;0.00;;
15490;SDS011;7847;50.930;4.336;2023-06-05T13:10:09;0.00;;;0.00;;
15490;SDS011;7847;50.930;4.336;2023-06-05T13:12:36;0.05;;;0.05;;
15490;SDS011;7847;50.930;4.336;2023-06-05T13:15:02;0.00;;;0.00;;
15490;SDS011;7847;50.930;4.336;2023-06-05T13:17:31;0.00;;;0.00;;
15490;SDS011;7847;50.930;4.336;2023-06-05T13:20:00;0.00;;;0.00;;
15490;SDS011;7847;50.930;4.336;2023-06-05T13:22:26;0.00;;;0.00;;
15490;SDS011;7847;50.930;4.336;2023-06-05T13:24:52;0.00;;;0.00;;
15490;SDS011;7847;50.930;4.336;2023-06-05T13:27:18;0.00;;;0.00;;
15490;SDS011;7847;50.930;4.336;2023-06-05T13:29:46;0.00;;;0.00;;
15490;SDS011;7847;50.930;4.336;2023-06-05T13:32:12;0.10;;;0.10;;
15490;SDS011;7847;50.930;4.336;2023-06-05T13:34:38;0.10;;;0.10;;
15490;SDS011;7847;50.930;4.336;2023-06-05T13:37:04;0.00;;;0.00;;
15490;SDS011;7847;50.930;4.336;2023-06-05T13:39:30;0.00;;;0.00;;
15490;SDS011;7847;50.930;4.336;2023-06-05T13:41:56;0.00;;;0.00;;
15490;SDS011;7847;50.930;4.336;2023-06-05T13:44:22;0.00;;;0.00;;
15490;SDS011;7847;50.930;4.336;2023-06-05T13:46:48;0.10;;;0.10;;
15490;SDS011;7847;50.930;4.336;2023-06-05T13:49:14;0.10;;;0.10;;
15490;SDS011;7847;50.930;4.336;2023-06-05T13:51:41;0.10;;;0.10;;
15490;SDS011;7847;50.930;4.336;2023-06-05T13:54:07;0.00;;;0.00;;
15490;SDS011;7847;50.930;4.336;2023-06-05T13:56:33;0.00;;;0.00;;
15490;SDS011;7847;50.930;4.336;2023-06-05T13:58:59;0.00;;;0.00;;
15490;SDS011;7847;50.930;4.336;2023-06-05T14:01:25;0.00;;;0.00;;
15490;SDS011;7847;50.930;4.336;2023-06-05T14:03:51;0.00;;;0.00;;
15490;SDS011;7847;50.930;4.336;2023-06-05T14:06:17;0.00;;;0.00;;
15490;SDS011;7847;50.930;4.336;2023-06-05T14:08:44;0.00;;;0.00;;
15490;SDS011;7847;50.930;4.336;2023-06-05T14:11:10;0.00;;;0.00;;
15490;SDS011;7847;50.930;4.336;2023-06-05T14:13:36;0.00;;;0.00;;
15490;SDS011;7847;50.930;4.336;2023-06-05T14:16:02;0.00;;;0.00;;
15490;SDS011;7847;50.930;4.336;2023-06-05T14:18:28;0.00;;;0.00;;
15490;SDS011;7847;50.930;4.336;2023-06-05T14:20:55;0.00;;;0.00;;
15490;SDS011;7847;50.930;4.336;2023-06-05T14:23:21;0.00;;;0.00;;
15490;SDS011;7847;50.930;4.336;2023-06-05T14:25:49;0.00;;;0.00;;
15490;SDS011;7847;50.930;4.336;2023-06-05T14:28:15;0.10;;;0.10;;
15490;SDS011;7847;50.930;4.336;2023-06-05T14:30:41;0.00;;;0.00;;
15490;SDS011;7847;50.930;4.336;2023-06-05T14:33:07;0.00;;;0.00;;
15490;SDS011;7847;50.930;4.336;2023-06-05T14:35:33;0.00;;;0.00;;
15490;SDS011;7847;50.930;4.336;2023-06-05T14:37:59;0.00;;;0.00;;
15490;SDS011;7847;50.930;4.336;2023-06-05T14:40:25;0.00;;;0.00;;
15490;SDS011;7847;50.930;4.336;2023-06-05T14:42:51;0.00;;;0.00;;
15490;SDS011;7847;50.930;4.336;2023-06-05T14:45:17;0.00;;;0.00;;
15490;SDS011;7847;50.930;4.336;2023-06-05T14:47:43;0.00;;;0.00;;
15490;SDS011;7847;50.930;4.336;2023-06-05T14:50:10;0.00;;;0.00;;
15490;SDS011;7847;50.930;4.336;2023-06-05T14:52:36;0.00;;;0.00;;
15490;SDS011;7847;50.930;4.336;2023-06-05T14:55:02;0.00;;;0.00;;
15490;SDS011;7847;50.930;4.336;2023-06-05T14:57:28;0.00;;;0.00;;
15490;SDS011;7847;50.930;4.336;2023-06-05T14:59:55;0.00;;;0.00;;
15490;SDS011;7847;50.930;4.336;2023-06-05T15:02:21;0.10;;;0.10;;
15490;SDS011;7847;50.930;4.336;2023-06-05T15:04:50;0.00;;;0.00;;
15490;SDS011;7847;50.930;4.336;2023-06-05T15:07:20;0.00;;;0.00;;
15490;SDS011;7847;50.930;4.336;2023-06-05T15:09:46;0.10;;;0.10;;
15490;SDS011;7847;50.930;4.336;2023-06-05T15:12:12;0.00;;;0.00;;
15490;SDS011;7847;50.930;4.336;2023-06-05T15:14:38;0.00;;;0.00;;
15490;SDS011;7847;50.930;4.336;2023-06-05T15:17:04;0.10;;;0.10;;
15490;SDS011;7847;50.930;4.336;2023-06-05T15:19:31;0.10;;;0.10;;
15490;SDS011;7847;50.930;4.336;2023-06-05T15:21:57;0.00;;;0.00;;
15490;SDS011;7847;50.930;4.336;2023-06-05T15:24:23;0.00;;;0.00;;
15490;SDS011;7847;50.930;4.336;2023-06-05T15:26:49;0.05;;;0.05;;
15490;SDS011;7847;50.930;4.336;2023-06-05T15:29:15;0.00;;;0.00;;